sensor_id;sensor_type;location;lat;lon;timestamp;P1;durP1;ratioP1;P2;durP2;ratioP2
32108;SDS011;18624;50.042;8.436;2023-06-14T00:01:30;24.45;;;10.07;;
32108;SDS011;18624;50.042;8.436;2023-06-14T00:04:00;22.38;;;10.10;;
32108;SDS011;18624;50.042;8.436;2023-06-14T00:06:30;22.90;;;10.63;;
32108;SDS011;18624;50.042;8.436;2023-06-14T00:08:57;24.90;;;10.18;;
32108;SDS011;18624;50.042;8.436;2023-06-14T00:11:23;23.73;;;10.00;;
32108;SDS011;18624;50.042;8.436;2023-06-14T00:13:50;23.67;;;11.25;;
32108;SDS011;18624;50.042;8.436;2023-06-14T00:16:16;20.95;;;9.35;;
32108;SDS011;18624;50.042;8.436;2023-06-14T00:18:43;21.88;;;10.20;;
32108;SDS011;18624;50.042;8.436;2023-06-14T00:21:10;27.40;;;10.48;;
32108;SDS011;18624;50.042;8.436;2023-06-14T00:23:36;24.83;;;10.73;;
32108;SDS011;18624;50.042;8.436;2023-06-14T00:26:03;21.90;;;9.80;;
32108;SDS011;18624;50.042;8.436;2023-06-14T00:28:29;22.02;;;9.82;;
32108;SDS011;18624;50.042;8.436;2023-06-14T00:30:56;25.73;;;10.05;;
32108;SDS011;18624;50.042;8.436;2023-06-14T00:33:22;22.27;;;9.48;;
32108;SDS011;18624;50.042;8.436;2023-06-14T00:35:49;23.08;;;9.68;;
32108;SDS011;18624;50.042;8.436;2023-06-14T00:38:18;22.67;;;9.73;;
32108;SDS011;18624;50.042;8.436;2023-06-14T00:40:45;22.23;;;9.82;;
32108;SDS011;18624;50.042;8.436;2023-06-14T00:43:12;21.17;;;9.43;;
32108;SDS011;18624;50.042;8.436;2023-06-14T00:45:39;24.65;;;10.35;;
32108;SDS011;18624;50.042;8.436;2023-06-14T00:48:05;21.98;;;9.20;;
32108;SDS011;18624;50.042;8.436;2023-06-14T00:50:33;23.92;;;9.82;;
32108;SDS011;18624;50.042;8.436;2023-06-14T00:53:00;25.40;;;9.57;;
32108;SDS011;18624;50.042;8.436;2023-06-14T00:55:27;22.25;;;9.23;;
32108;SDS011;18624;50.042;8.436;2023-06-14T00:57:54;22.95;;;9.93;;
32108;SDS011;18624;50.042;8.436;2023-06-14T01:00:22;27.80;;;10.30;;
32108;SDS011;18624;50.042;8.436;2023-06-14T01:02:48;23.45;;;9.75;;
32108;SDS011;18624;50.042;8.436;2023-06-14T01:05:18;22.33;;;8.90;;
32108;SDS011;18624;50.042;8.436;2023-06-14T01:13:29;23.13;;;9.05;;
32108;SDS011;18624;50.042;8.436;2023-06-14T01:16:02;21.80;;;9.50;;
32108;SDS011;18624;50.042;8.436;2023-06-14T01:18:30;23.77;;;9.13;;
32108;SDS011;18624;50.042;8.436;2023-06-14T01:21:00;24.77;;;9.65;;
32108;SDS011;18624;50.042;8.436;2023-06-14T01:23:32;23.15;;;10.00;;
32108;SDS011;18624;50.042;8.436;2023-06-14T01:25:59;24.40;;;9.85;;
32108;SDS011;18624;50.042;8.436;2023-06-14T01:28:30;21.73;;;9.38;;
32108;SDS011;18624;50.042;8.436;2023-06-14T01:31:00;24.20;;;9.77;;
32108;SDS011;18624;50.042;8.436;2023-06-14T01:33:32;21.38;;;9.85;;
32108;SDS011;18624;50.042;8.436;2023-06-14T01:36:00;22.55;;;9.27;;
32108;SDS011;18624;50.042;8.436;2023-06-14T01:38:29;26.60;;;11.13;;
32108;SDS011;18624;50.042;8.436;2023-06-14T01:40:57;24.98;;;9.50;;
32108;SDS011;18624;50.042;8.436;2023-06-14T01:43:27;17.25;;;8.02;;
32108;SDS011;18624;50.042;8.436;2023-06-14T01:45:57;19.52;;;8.50;;
32108;SDS011;18624;50.042;8.436;2023-06-14T01:48:26;20.92;;;8.88;;
32108;SDS011;18624;50.042;8.436;2023-06-14T01:50:53;21.30;;;8.38;;
32108;SDS011;18624;50.042;8.436;2023-06-14T01:53:19;20.42;;;9.40;;
32108;SDS011;18624;50.042;8.436;2023-06-14T01:55:46;19.67;;;9.32;;
32108;SDS011;18624;50.042;8.436;2023-06-14T01:58:15;19.38;;;8.50;;
32108;SDS011;18624;50.042;8.436;2023-06-14T02:00:45;20.95;;;9.35;;
32108;SDS011;18624;50.042;8.436;2023-06-14T02:03:13;20.70;;;8.77;;
32108;SDS011;18624;50.042;8.436;2023-06-14T02:05:41;20.45;;;9.93;;
32108;SDS011;18624;50.042;8.436;2023-06-14T02:08:08;21.20;;;9.27;;
32108;SDS011;18624;50.042;8.436;2023-06-14T02:10:36;19.33;;;8.73;;
32108;SDS011;18624;50.042;8.436;2023-06-14T02:13:03;19.27;;;9.10;;
32108;SDS011;18624;50.042;8.436;2023-06-14T02:15:29;21.15;;;8.73;;
32108;SDS011;18624;50.042;8.436;2023-06-14T02:18:01;20.15;;;8.80;;
32108;SDS011;18624;50.042;8.436;2023-06-14T02:20:28;22.40;;;9.35;;
32108;SDS011;18624;50.042;8.436;2023-06-14T02:22:56;19.70;;;8.73;;
32108;SDS011;18624;50.042;8.436;2023-06-14T02:25:23;19.30;;;8.10;;
32108;SDS011;18624;50.042;8.436;2023-06-14T02:27:49;18.40;;;8.35;;
32108;SDS011;18624;50.042;8.436;2023-06-14T02:30:16;24.40;;;9.13;;
32108;SDS011;18624;50.042;8.436;2023-06-14T02:32:43;19.52;;;9.18;;
32108;SDS011;18624;50.042;8.436;2023-06-14T02:35:11;24.67;;;8.77;;
32108;SDS011;18624;50.042;8.436;2023-06-14T02:37:39;22.42;;;9.80;;
32108;SDS011;18624;50.042;8.436;2023-06-14T02:40:06;21.92;;;11.52;;
32108;SDS011;18624;50.042;8.436;2023-06-14T02:42:33;22.45;;;11.52;;
32108;SDS011;18624;50.042;8.436;2023-06-14T02:45:00;17.92;;;10.40;;
32108;SDS011;18624;50.042;8.436;2023-06-14T02:47:27;22.10;;;11.52;;
32108;SDS011;18624;50.042;8.436;2023-06-14T02:49:53;23.67;;;11.50;;
32108;SDS011;18624;50.042;8.436;2023-06-14T02:52:20;23.52;;;11.32;;
32108;SDS011;18624;50.042;8.436;2023-06-14T02:54:47;24.05;;;11.38;;
32108;SDS011;18624;50.042;8.436;2023-06-14T02:57:14;21.02;;;11.18;;
32108;SDS011;18624;50.042;8.436;2023-06-14T02:59:42;21.73;;;11.40;;
32108;SDS011;18624;50.042;8.436;2023-06-14T03:02:08;24.40;;;12.52;;
32108;SDS011;18624;50.042;8.436;2023-06-14T03:04:35;24.08;;;11.40;;
32108;SDS011;18624;50.042;8.436;2023-06-14T03:07:08;22.70;;;11.80;;
32108;SDS011;18624;50.042;8.436;2023-06-14T03:09:41;22.20;;;11.68;;
32108;SDS011;18624;50.042;8.436;2023-06-14T03:12:10;21.77;;;11.35;;
32108;SDS011;18624;50.042;8.436;2023-06-14T03:14:38;21.75;;;11.05;;
32108;SDS011;18624;50.042;8.436;2023-06-14T03:17:04;19.83;;;10.32;;
32108;SDS011;18624;50.042;8.436;2023-06-14T03:19:33;22.83;;;12.25;;
32108;SDS011;18624;50.042;8.436;2023-06-14T03:22:01;20.38;;;11.30;;
32108;SDS011;18624;50.042;8.436;2023-06-14T03:24:30;23.85;;;11.63;;
32108;SDS011;18624;50.042;8.436;2023-06-14T03:27:08;24.27;;;11.65;;
32108;SDS011;18624;50.042;8.436;2023-06-14T03:29:38;21.10;;;11.63;;
32108;SDS011;18624;50.042;8.436;2023-06-14T03:32:05;20.77;;;10.98;;
32108;SDS011;18624;50.042;8.436;2023-06-14T03:34:35;21.98;;;11.23;;
32108;SDS011;18624;50.042;8.436;2023-06-14T03:37:02;20.17;;;10.90;;
32108;SDS011;18624;50.042;8.436;2023-06-14T03:39:29;23.60;;;9.23;;
32108;SDS011;18624;50.042;8.436;2023-06-14T03:41:55;18.45;;;8.55;;
32108;SDS011;18624;50.042;8.436;2023-06-14T03:44:22;21.48;;;9.95;;
32108;SDS011;18624;50.042;8.436;2023-06-14T03:46:49;21.70;;;8.13;;
32108;SDS011;18624;50.042;8.436;2023-06-14T03:49:16;20.58;;;9.15;;
32108;SDS011;18624;50.042;8.436;2023-06-14T03:51:44;20.55;;;9.05;;
32108;SDS011;18624;50.042;8.436;2023-06-14T03:54:12;18.65;;;9.02;;
32108;SDS011;18624;50.042;8.436;2023-06-14T03:56:59;19.77;;;8.77;;
32108;SDS011;18624;50.042;8.436;2023-06-14T03:59:26;21.10;;;9.90;;
32108;SDS011;18624;50.042;8.436;2023-06-14T04:01:53;20.08;;;8.68;;
32108;SDS011;18624;50.042;8.436;2023-06-14T04:04:20;21.38;;;9.70;;
32108;SDS011;18624;50.042;8.436;2023-06-14T04:06:47;19.73;;;8.77;;
32108;SDS011;18624;50.042;8.436;2023-06-14T04:09:14;22.67;;;9.13;;
32108;SDS011;18624;50.042;8.436;2023-06-14T04:11:41;20.42;;;8.63;;
32108;SDS011;18624;50.042;8.436;2023-06-14T04:14:07;22.15;;;9.30;;
32108;SDS011;18624;50.042;8.436;2023-06-14T04:16:34;19.90;;;9.85;;
32108;SDS011;18624;50.042;8.436;2023-06-14T04:19:01;20.13;;;8.77;;
32108;SDS011;18624;50.042;8.436;2023-06-14T04:21:28;21.20;;;9.20;;
32108;SDS011;18624;50.042;8.436;2023-06-14T04:23:57;21.58;;;9.48;;
32108;SDS011;18624;50.042;8.436;2023-06-14T04:26:26;22.00;;;8.50;;
32108;SDS011;18624;50.042;8.436;2023-06-14T04:28:56;22.83;;;8.98;;
32108;SDS011;18624;50.042;8.436;2023-06-14T04:31:29;20.30;;;8.23;;
32108;SDS011;18624;50.042;8.436;2023-06-14T04:34:00;26.85;;;10.15;;
32108;SDS011;18624;50.042;8.436;2023-06-14T04:36:27;28.17;;;9.50;;
32108;SDS011;18624;50.042;8.436;2023-06-14T04:38:54;26.33;;;9.77;;
32108;SDS011;18624;50.042;8.436;2023-06-14T04:41:23;21.75;;;8.90;;
32108;SDS011;18624;50.042;8.436;2023-06-14T04:43:55;25.52;;;10.27;;
32108;SDS011;18624;50.042;8.436;2023-06-14T04:46:23;25.10;;;10.30;;
32108;SDS011;18624;50.042;8.436;2023-06-14T04:48:50;24.05;;;9.20;;
32108;SDS011;18624;50.042;8.436;2023-06-14T04:51:16;22.40;;;8.85;;
32108;SDS011;18624;50.042;8.436;2023-06-14T04:53:47;21.67;;;9.45;;
32108;SDS011;18624;50.042;8.436;2023-06-14T04:56:15;22.30;;;9.30;;
32108;SDS011;18624;50.042;8.436;2023-06-14T04:58:43;20.67;;;8.98;;
32108;SDS011;18624;50.042;8.436;2023-06-14T05:01:10;22.60;;;10.70;;
32108;SDS011;18624;50.042;8.436;2023-06-14T05:03:37;22.40;;;9.13;;
32108;SDS011;18624;50.042;8.436;2023-06-14T05:06:03;25.35;;;9.15;;
32108;SDS011;18624;50.042;8.436;2023-06-14T05:08:30;28.50;;;9.95;;
32108;SDS011;18624;50.042;8.436;2023-06-14T05:10:57;22.08;;;8.98;;
32108;SDS011;18624;50.042;8.436;2023-06-14T05:13:23;25.83;;;9.60;;
32108;SDS011;18624;50.042;8.436;2023-06-14T05:15:50;27.42;;;9.20;;
32108;SDS011;18624;50.042;8.436;2023-06-14T05:18:16;26.85;;;9.82;;
32108;SDS011;18624;50.042;8.436;2023-06-14T05:20:43;29.95;;;9.85;;
32108;SDS011;18624;50.042;8.436;2023-06-14T05:23:09;27.75;;;10.40;;
32108;SDS011;18624;50.042;8.436;2023-06-14T05:25:42;24.50;;;9.57;;
32108;SDS011;18624;50.042;8.436;2023-06-14T05:28:10;23.83;;;9.57;;
32108;SDS011;18624;50.042;8.436;2023-06-14T05:30:37;23.38;;;9.60;;
32108;SDS011;18624;50.042;8.436;2023-06-14T05:33:05;24.70;;;9.13;;
32108;SDS011;18624;50.042;8.436;2023-06-14T05:35:32;24.08;;;9.52;;
32108;SDS011;18624;50.042;8.436;2023-06-14T05:37:59;25.30;;;9.45;;
32108;SDS011;18624;50.042;8.436;2023-06-14T05:40:25;23.27;;;8.90;;
32108;SDS011;18624;50.042;8.436;2023-06-14T05:42:52;23.65;;;8.40;;
32108;SDS011;18624;50.042;8.436;2023-06-14T05:45:18;26.45;;;10.02;;
32108;SDS011;18624;50.042;8.436;2023-06-14T05:47:45;24.70;;;9.32;;
32108;SDS011;18624;50.042;8.436;2023-06-14T05:50:11;24.15;;;8.88;;
32108;SDS011;18624;50.042;8.436;2023-06-14T05:52:38;25.23;;;8.90;;
32108;SDS011;18624;50.042;8.436;2023-06-14T05:55:05;19.77;;;8.02;;
32108;SDS011;18624;50.042;8.436;2023-06-14T05:57:32;23.02;;;7.97;;
32108;SDS011;18624;50.042;8.436;2023-06-14T05:59:58;25.05;;;9.10;;
32108;SDS011;18624;50.042;8.436;2023-06-14T06:02:25;26.70;;;9.32;;
32108;SDS011;18624;50.042;8.436;2023-06-14T06:04:51;23.25;;;9.02;;
32108;SDS011;18624;50.042;8.436;2023-06-14T06:07:18;24.02;;;8.90;;
32108;SDS011;18624;50.042;8.436;2023-06-14T06:09:44;22.67;;;9.38;;
32108;SDS011;18624;50.042;8.436;2023-06-14T06:12:11;25.05;;;9.10;;
32108;SDS011;18624;50.042;8.436;2023-06-14T06:14:37;24.08;;;9.65;;
32108;SDS011;18624;50.042;8.436;2023-06-14T06:17:04;22.65;;;9.70;;
32108;SDS011;18624;50.042;8.436;2023-06-14T06:19:31;25.83;;;10.02;;
32108;SDS011;18624;50.042;8.436;2023-06-14T06:21:57;24.90;;;9.60;;
32108;SDS011;18624;50.042;8.436;2023-06-14T06:24:24;26.80;;;10.23;;
32108;SDS011;18624;50.042;8.436;2023-06-14T06:26:50;24.77;;;9.63;;
32108;SDS011;18624;50.042;8.436;2023-06-14T06:29:17;26.88;;;9.45;;
32108;SDS011;18624;50.042;8.436;2023-06-14T06:31:43;24.42;;;10.05;;
32108;SDS011;18624;50.042;8.436;2023-06-14T06:34:11;26.17;;;10.43;;
32108;SDS011;18624;50.042;8.436;2023-06-14T06:36:38;33.85;;;10.65;;
32108;SDS011;18624;50.042;8.436;2023-06-14T06:39:04;34.33;;;10.68;;
32108;SDS011;18624;50.042;8.436;2023-06-14T06:41:39;21.88;;;9.07;;
32108;SDS011;18624;50.042;8.436;2023-06-14T06:44:06;23.27;;;9.40;;
32108;SDS011;18624;50.042;8.436;2023-06-14T06:46:33;22.90;;;9.98;;
32108;SDS011;18624;50.042;8.436;2023-06-14T06:49:01;19.70;;;8.40;;
32108;SDS011;18624;50.042;8.436;2023-06-14T06:51:27;24.65;;;9.00;;
32108;SDS011;18624;50.042;8.436;2023-06-14T06:53:54;26.80;;;8.68;;
32108;SDS011;18624;50.042;8.436;2023-06-14T06:56:21;19.58;;;8.35;;
32108;SDS011;18624;50.042;8.436;2023-06-14T06:58:51;27.00;;;8.90;;
32108;SDS011;18624;50.042;8.436;2023-06-14T07:01:17;24.05;;;9.13;;
32108;SDS011;18624;50.042;8.436;2023-06-14T07:03:45;18.77;;;8.38;;
32108;SDS011;18624;50.042;8.436;2023-06-14T07:06:12;18.70;;;7.80;;
32108;SDS011;18624;50.042;8.436;2023-06-14T07:08:38;21.67;;;8.73;;
32108;SDS011;18624;50.042;8.436;2023-06-14T07:11:05;19.55;;;7.90;;
32108;SDS011;18624;50.042;8.436;2023-06-14T07:13:32;20.50;;;8.70;;
32108;SDS011;18624;50.042;8.436;2023-06-14T07:15:59;21.55;;;7.80;;
32108;SDS011;18624;50.042;8.436;2023-06-14T07:18:27;20.73;;;8.02;;
32108;SDS011;18624;50.042;8.436;2023-06-14T07:20:54;17.92;;;7.53;;
32108;SDS011;18624;50.042;8.436;2023-06-14T07:23:20;22.08;;;8.10;;
32108;SDS011;18624;50.042;8.436;2023-06-14T07:25:47;24.20;;;9.15;;
32108;SDS011;18624;50.042;8.436;2023-06-14T07:28:13;20.33;;;8.25;;
32108;SDS011;18624;50.042;8.436;2023-06-14T07:30:40;22.15;;;8.45;;
32108;SDS011;18624;50.042;8.436;2023-06-14T07:33:06;20.98;;;8.50;;
32108;SDS011;18624;50.042;8.436;2023-06-14T07:35:34;21.73;;;8.52;;
32108;SDS011;18624;50.042;8.436;2023-06-14T07:38:01;22.65;;;8.73;;
32108;SDS011;18624;50.042;8.436;2023-06-14T07:40:27;19.83;;;7.65;;
32108;SDS011;18624;50.042;8.436;2023-06-14T07:42:54;19.13;;;8.23;;
32108;SDS011;18624;50.042;8.436;2023-06-14T07:45:21;15.65;;;7.10;;
32108;SDS011;18624;50.042;8.436;2023-06-14T07:47:47;21.00;;;8.77;;
32108;SDS011;18624;50.042;8.436;2023-06-14T07:50:14;21.33;;;7.22;;
32108;SDS011;18624;50.042;8.436;2023-06-14T07:52:40;22.20;;;8.18;;
32108;SDS011;18624;50.042;8.436;2023-06-14T07:55:07;20.23;;;7.85;;
32108;SDS011;18624;50.042;8.436;2023-06-14T07:57:33;20.92;;;8.20;;
32108;SDS011;18624;50.042;8.436;2023-06-14T08:00:00;20.80;;;8.55;;
32108;SDS011;18624;50.042;8.436;2023-06-14T08:02:37;20.70;;;9.02;;
32108;SDS011;18624;50.042;8.436;2023-06-14T08:05:04;21.73;;;8.23;;
32108;SDS011;18624;50.042;8.436;2023-06-14T08:07:30;18.98;;;7.82;;
32108;SDS011;18624;50.042;8.436;2023-06-14T08:09:57;19.30;;;8.00;;
32108;SDS011;18624;50.042;8.436;2023-06-14T08:12:23;19.38;;;7.28;;
32108;SDS011;18624;50.042;8.436;2023-06-14T08:14:50;16.35;;;7.18;;
32108;SDS011;18624;50.042;8.436;2023-06-14T08:17:37;19.92;;;8.50;;
32108;SDS011;18624;50.042;8.436;2023-06-14T08:20:04;20.98;;;7.90;;
32108;SDS011;18624;50.042;8.436;2023-06-14T08:22:32;21.70;;;8.73;;
32108;SDS011;18624;50.042;8.436;2023-06-14T08:25:02;20.10;;;7.20;;
32108;SDS011;18624;50.042;8.436;2023-06-14T08:27:30;21.17;;;6.68;;
32108;SDS011;18624;50.042;8.436;2023-06-14T08:29:56;16.23;;;6.97;;
32108;SDS011;18624;50.042;8.436;2023-06-14T08:32:23;20.67;;;8.57;;
32108;SDS011;18624;50.042;8.436;2023-06-14T08:34:50;17.05;;;7.07;;
32108;SDS011;18624;50.042;8.436;2023-06-14T08:37:31;25.10;;;9.50;;
32108;SDS011;18624;50.042;8.436;2023-06-14T08:39:59;17.75;;;6.68;;
32108;SDS011;18624;50.042;8.436;2023-06-14T08:42:26;20.00;;;7.95;;
32108;SDS011;18624;50.042;8.436;2023-06-14T08:44:57;19.40;;;7.00;;
32108;SDS011;18624;50.042;8.436;2023-06-14T08:47:24;15.40;;;6.50;;
32108;SDS011;18624;50.042;8.436;2023-06-14T08:49:52;22.80;;;7.45;;
32108;SDS011;18624;50.042;8.436;2023-06-14T08:52:23;17.25;;;7.28;;
32108;SDS011;18624;50.042;8.436;2023-06-14T08:57:23;17.40;;;6.35;;
32108;SDS011;18624;50.042;8.436;2023-06-14T08:59:51;21.45;;;7.13;;
32108;SDS011;18624;50.042;8.436;2023-06-14T09:02:19;17.33;;;6.57;;
32108;SDS011;18624;50.042;8.436;2023-06-14T09:04:48;19.63;;;6.63;;
32108;SDS011;18624;50.042;8.436;2023-06-14T09:07:15;19.02;;;7.22;;
32108;SDS011;18624;50.042;8.436;2023-06-14T09:09:42;17.98;;;7.53;;
32108;SDS011;18624;50.042;8.436;2023-06-14T09:12:28;22.27;;;8.55;;
32108;SDS011;18624;50.042;8.436;2023-06-14T09:14:54;19.15;;;7.13;;
32108;SDS011;18624;50.042;8.436;2023-06-14T09:17:20;18.35;;;6.63;;
32108;SDS011;18624;50.042;8.436;2023-06-14T09:19:49;17.77;;;6.00;;
32108;SDS011;18624;50.042;8.436;2023-06-14T09:22:16;15.93;;;5.43;;
32108;SDS011;18624;50.042;8.436;2023-06-14T09:24:43;19.55;;;7.10;;
32108;SDS011;18624;50.042;8.436;2023-06-14T09:27:14;16.33;;;6.22;;
32108;SDS011;18624;50.042;8.436;2023-06-14T09:29:41;16.13;;;6.38;;
32108;SDS011;18624;50.042;8.436;2023-06-14T09:32:08;22.40;;;7.60;;
32108;SDS011;18624;50.042;8.436;2023-06-14T09:34:35;20.13;;;7.50;;
32108;SDS011;18624;50.042;8.436;2023-06-14T09:37:02;19.15;;;6.97;;
32108;SDS011;18624;50.042;8.436;2023-06-14T09:39:29;20.45;;;6.03;;
32108;SDS011;18624;50.042;8.436;2023-06-14T09:41:55;18.30;;;6.57;;
32108;SDS011;18624;50.042;8.436;2023-06-14T09:44:22;18.63;;;7.53;;
32108;SDS011;18624;50.042;8.436;2023-06-14T09:46:55;17.02;;;7.05;;
32108;SDS011;18624;50.042;8.436;2023-06-14T09:49:22;18.83;;;6.85;;
32108;SDS011;18624;50.042;8.436;2023-06-14T09:51:50;17.52;;;6.82;;
32108;SDS011;18624;50.042;8.436;2023-06-14T09:54:20;19.52;;;7.90;;
32108;SDS011;18624;50.042;8.436;2023-06-14T09:56:49;19.02;;;6.80;;
32108;SDS011;18624;50.042;8.436;2023-06-14T09:59:21;20.35;;;6.97;;
32108;SDS011;18624;50.042;8.436;2023-06-14T10:01:58;16.15;;;6.55;;
32108;SDS011;18624;50.042;8.436;2023-06-14T10:04:32;19.85;;;7.25;;
32108;SDS011;18624;50.042;8.436;2023-06-14T10:07:00;13.95;;;5.70;;
32108;SDS011;18624;50.042;8.436;2023-06-14T10:09:28;17.35;;;6.65;;
32108;SDS011;18624;50.042;8.436;2023-06-14T10:11:58;17.65;;;7.15;;
32108;SDS011;18624;50.042;8.436;2023-06-14T10:14:24;20.08;;;7.40;;
32108;SDS011;18624;50.042;8.436;2023-06-14T10:17:00;17.40;;;6.43;;
32108;SDS011;18624;50.042;8.436;2023-06-14T10:19:35;17.30;;;6.00;;
32108;SDS011;18624;50.042;8.436;2023-06-14T10:22:09;16.63;;;5.88;;
32108;SDS011;18624;50.042;8.436;2023-06-14T10:24:44;16.90;;;6.80;;
32108;SDS011;18624;50.042;8.436;2023-06-14T10:27:15;16.17;;;5.82;;
32108;SDS011;18624;50.042;8.436;2023-06-14T10:32:20;17.40;;;6.57;;
32108;SDS011;18624;50.042;8.436;2023-06-14T10:34:53;18.20;;;7.25;;
32108;SDS011;18624;50.042;8.436;2023-06-14T10:37:23;17.92;;;6.15;;
32108;SDS011;18624;50.042;8.436;2023-06-14T10:39:50;17.05;;;6.15;;
32108;SDS011;18624;50.042;8.436;2023-06-14T10:42:17;16.65;;;6.15;;
32108;SDS011;18624;50.042;8.436;2023-06-14T10:44:51;18.10;;;7.15;;
32108;SDS011;18624;50.042;8.436;2023-06-14T10:49:50;15.90;;;6.68;;
32108;SDS011;18624;50.042;8.436;2023-06-14T10:52:23;17.45;;;7.03;;
32108;SDS011;18624;50.042;8.436;2023-06-14T10:57:45;17.85;;;6.90;;
32108;SDS011;18624;50.042;8.436;2023-06-14T11:00:23;17.50;;;6.60;;
32108;SDS011;18624;50.042;8.436;2023-06-14T11:03:11;19.95;;;6.15;;
32108;SDS011;18624;50.042;8.436;2023-06-14T11:05:57;17.08;;;6.00;;
32108;SDS011;18624;50.042;8.436;2023-06-14T11:08:35;18.45;;;6.70;;
32108;SDS011;18624;50.042;8.436;2023-06-14T11:11:15;18.60;;;7.03;;
32108;SDS011;18624;50.042;8.436;2023-06-14T11:13:44;21.33;;;7.80;;
32108;SDS011;18624;50.042;8.436;2023-06-14T11:16:14;19.25;;;7.18;;
32108;SDS011;18624;50.042;8.436;2023-06-14T11:18:43;15.63;;;6.93;;
32108;SDS011;18624;50.042;8.436;2023-06-14T11:21:15;20.90;;;8.38;;
32108;SDS011;18624;50.042;8.436;2023-06-14T11:23:43;20.25;;;8.18;;
32108;SDS011;18624;50.042;8.436;2023-06-14T11:26:15;19.02;;;7.10;;
32108;SDS011;18624;50.042;8.436;2023-06-14T11:28:42;20.45;;;7.63;;
32108;SDS011;18624;50.042;8.436;2023-06-14T11:31:09;18.55;;;7.60;;
32108;SDS011;18624;50.042;8.436;2023-06-14T11:33:35;23.67;;;9.23;;
32108;SDS011;18624;50.042;8.436;2023-06-14T11:36:02;15.77;;;6.28;;
32108;SDS011;18624;50.042;8.436;2023-06-14T11:38:34;19.33;;;7.57;;
32108;SDS011;18624;50.042;8.436;2023-06-14T11:41:02;16.80;;;7.25;;
32108;SDS011;18624;50.042;8.436;2023-06-14T11:43:28;20.00;;;7.95;;
32108;SDS011;18624;50.042;8.436;2023-06-14T11:45:58;19.10;;;7.50;;
32108;SDS011;18624;50.042;8.436;2023-06-14T11:48:37;16.60;;;7.40;;
32108;SDS011;18624;50.042;8.436;2023-06-14T11:51:05;21.17;;;7.55;;
32108;SDS011;18624;50.042;8.436;2023-06-14T11:53:31;19.10;;;6.68;;
32108;SDS011;18624;50.042;8.436;2023-06-14T11:55:58;19.98;;;6.82;;
32108;SDS011;18624;50.042;8.436;2023-06-14T11:58:25;17.88;;;5.95;;
32108;SDS011;18624;50.042;8.436;2023-06-14T12:00:53;16.55;;;6.57;;
32108;SDS011;18624;50.042;8.436;2023-06-14T12:03:23;18.60;;;7.20;;
32108;SDS011;18624;50.042;8.436;2023-06-14T12:06:01;17.77;;;6.70;;
32108;SDS011;18624;50.042;8.436;2023-06-14T12:08:38;20.23;;;7.57;;
32108;SDS011;18624;50.042;8.436;2023-06-14T12:11:06;17.80;;;7.07;;
32108;SDS011;18624;50.042;8.436;2023-06-14T12:13:40;15.60;;;7.15;;
32108;SDS011;18624;50.042;8.436;2023-06-14T12:16:10;16.77;;;7.13;;
32108;SDS011;18624;50.042;8.436;2023-06-14T12:18:38;17.45;;;7.55;;
32108;SDS011;18624;50.042;8.436;2023-06-14T12:21:07;16.73;;;6.72;;
32108;SDS011;18624;50.042;8.436;2023-06-14T12:23:47;20.50;;;7.47;;
32108;SDS011;18624;50.042;8.436;2023-06-14T12:26:15;18.05;;;7.22;;
32108;SDS011;18624;50.042;8.436;2023-06-14T12:28:46;18.98;;;7.05;;
32108;SDS011;18624;50.042;8.436;2023-06-14T12:31:14;16.65;;;6.72;;
32108;SDS011;18624;50.042;8.436;2023-06-14T12:33:42;20.50;;;7.95;;
32108;SDS011;18624;50.042;8.436;2023-06-14T12:36:09;18.80;;;6.53;;
32108;SDS011;18624;50.042;8.436;2023-06-14T12:38:37;13.55;;;6.03;;
32108;SDS011;18624;50.042;8.436;2023-06-14T12:41:03;17.15;;;6.93;;
32108;SDS011;18624;50.042;8.436;2023-06-14T12:43:30;17.88;;;6.60;;
32108;SDS011;18624;50.042;8.436;2023-06-14T12:45:57;18.52;;;7.03;;
32108;SDS011;18624;50.042;8.436;2023-06-14T12:48:23;16.80;;;6.20;;
32108;SDS011;18624;50.042;8.436;2023-06-14T12:50:50;17.10;;;6.55;;
32108;SDS011;18624;50.042;8.436;2023-06-14T12:53:17;18.63;;;7.15;;
32108;SDS011;18624;50.042;8.436;2023-06-14T12:55:43;17.00;;;7.43;;
32108;SDS011;18624;50.042;8.436;2023-06-14T12:58:10;16.88;;;6.70;;
32108;SDS011;18624;50.042;8.436;2023-06-14T13:00:39;18.13;;;7.47;;
32108;SDS011;18624;50.042;8.436;2023-06-14T13:03:05;18.23;;;6.75;;
32108;SDS011;18624;50.042;8.436;2023-06-14T13:05:32;18.02;;;7.18;;
32108;SDS011;18624;50.042;8.436;2023-06-14T13:07:59;3.83;;;3.40;;
32108;SDS011;18624;50.042;8.436;2023-06-14T13:10:26;4.47;;;3.30;;
32108;SDS011;18624;50.042;8.436;2023-06-14T13:12:54;6.90;;;4.10;;
32108;SDS011;18624;50.042;8.436;2023-06-14T13:15:20;4.10;;;3.17;;
32108;SDS011;18624;50.042;8.436;2023-06-14T13:17:47;6.10;;;3.88;;
32108;SDS011;18624;50.042;8.436;2023-06-14T13:20:15;4.25;;;3.85;;
32108;SDS011;18624;50.042;8.436;2023-06-14T13:22:45;5.57;;;4.10;;
32108;SDS011;18624;50.042;8.436;2023-06-14T13:25:12;4.63;;;4.20;;
32108;SDS011;18624;50.042;8.436;2023-06-14T13:27:39;4.28;;;3.92;;
32108;SDS011;18624;50.042;8.436;2023-06-14T13:30:05;5.38;;;3.80;;
32108;SDS011;18624;50.042;8.436;2023-06-14T13:32:32;8.77;;;3.88;;
32108;SDS011;18624;50.042;8.436;2023-06-14T13:34:59;4.68;;;4.00;;
32108;SDS011;18624;50.042;8.436;2023-06-14T13:37:26;6.20;;;3.45;;
32108;SDS011;18624;50.042;8.436;2023-06-14T13:39:52;4.65;;;3.00;;
32108;SDS011;18624;50.042;8.436;2023-06-14T13:42:19;4.07;;;3.78;;
32108;SDS011;18624;50.042;8.436;2023-06-14T13:44:46;6.88;;;3.88;;
32108;SDS011;18624;50.042;8.436;2023-06-14T13:47:12;4.72;;;4.10;;
32108;SDS011;18624;50.042;8.436;2023-06-14T13:49:39;6.20;;;3.45;;
32108;SDS011;18624;50.042;8.436;2023-06-14T13:52:05;5.38;;;3.88;;
32108;SDS011;18624;50.042;8.436;2023-06-14T13:54:32;6.18;;;3.42;;
32108;SDS011;18624;50.042;8.436;2023-06-14T13:56:59;7.57;;;3.67;;
32108;SDS011;18624;50.042;8.436;2023-06-14T13:59:25;5.18;;;3.83;;
32108;SDS011;18624;50.042;8.436;2023-06-14T14:01:52;5.95;;;3.85;;
32108;SDS011;18624;50.042;8.436;2023-06-14T14:04:19;7.72;;;3.38;;
32108;SDS011;18624;50.042;8.436;2023-06-14T14:06:46;4.97;;;3.40;;
32108;SDS011;18624;50.042;8.436;2023-06-14T14:09:14;5.35;;;3.78;;
32108;SDS011;18624;50.042;8.436;2023-06-14T14:11:41;6.95;;;4.43;;
32108;SDS011;18624;50.042;8.436;2023-06-14T14:14:08;8.60;;;4.57;;
32108;SDS011;18624;50.042;8.436;2023-06-14T14:16:36;4.07;;;3.65;;
32108;SDS011;18624;50.042;8.436;2023-06-14T14:19:03;4.78;;;3.47;;
32108;SDS011;18624;50.042;8.436;2023-06-14T14:21:30;4.22;;;3.83;;
32108;SDS011;18624;50.042;8.436;2023-06-14T14:23:57;5.03;;;3.05;;
32108;SDS011;18624;50.042;8.436;2023-06-14T14:26:23;3.72;;;3.42;;
32108;SDS011;18624;50.042;8.436;2023-06-14T14:28:51;6.28;;;4.88;;
32108;SDS011;18624;50.042;8.436;2023-06-14T14:31:18;3.83;;;3.28;;
32108;SDS011;18624;50.042;8.436;2023-06-14T14:33:44;4.30;;;3.42;;
32108;SDS011;18624;50.042;8.436;2023-06-14T14:36:11;3.85;;;3.55;;
32108;SDS011;18624;50.042;8.436;2023-06-14T14:38:37;5.07;;;3.30;;
32108;SDS011;18624;50.042;8.436;2023-06-14T14:41:04;3.38;;;3.05;;
32108;SDS011;18624;50.042;8.436;2023-06-14T14:43:31;6.22;;;3.92;;
32108;SDS011;18624;50.042;8.436;2023-06-14T14:45:58;5.32;;;3.10;;
32108;SDS011;18624;50.042;8.436;2023-06-14T14:48:25;4.03;;;3.55;;
32108;SDS011;18624;50.042;8.436;2023-06-14T14:50:51;6.03;;;4.13;;
32108;SDS011;18624;50.042;8.436;2023-06-14T14:53:18;5.47;;;3.65;;
32108;SDS011;18624;50.042;8.436;2023-06-14T14:55:44;3.17;;;2.95;;